This is the latest recevied weather packets stored in our database for station/object SM2FXT-13. If no packets are shown the sender has not sent any weather packets the latest 10 day(s).
| Time | Temp. | Humidity | Pressure | Rain* | Wind** | Luminosity | Snow |
|---|---|---|---|---|---|---|---|
| 1777738803 | 14.44° C | 39% | 1003 hPa | 0 mm | - | - | - |
| 1777737003 | 15.56° C | 38% | 1002.8 hPa | 0 mm | - | - | - |
| 1777735202 | 16.11° C | 35% | 1002.9 hPa | 0 mm | - | - | - |
| 1777729202 | 16.67° C | 48% | 1002.7 hPa | 0 mm | - | - | - |
| 1777728003 | 17.78° C | 46% | 1002.6 hPa | 0 mm | - | - | - |
| 1777723803 | 16.67° C | 49% | 1003.1 hPa | 0 mm | - | - | - |
| 1777716003 | 18.33° C | 47% | 1002.5 hPa | 0 mm | - | - | - |
| 1777706403 | 17.22° C | 51% | 1003.3 hPa | 0 mm | - | - | - |
| 1777704603 | 15.56° C | 55% | 1003.4 hPa | 0 mm | - | - | - |
| 1777704004 | 15.56° C | 55% | 1003.4 hPa | 0 mm | - | - | - |
| 1777698004 | 12.22° C | 62% | 1004.6 hPa | 0 mm | - | - | - |
| 1777692603 | 6.67° C | 84% | 1005.5 hPa | 0 mm | - | - | - |
| 1777683003 | 6.67° C | 82% | 1008.1 hPa | 0 mm | - | - | - |
| 1777680005 | 6.67° C | 81% | 1008.3 hPa | 0 mm | - | - | - |
| 1777675202 | 6.11° C | 83% | 1009 hPa | 0 mm | - | - | - |
| 1777672202 | 7.22° C | 79% | 1009.5 hPa | 0 mm | - | - | - |
| 1777668602 | 7.78° C | 73% | 1009.9 hPa | 0 mm | - | - | - |
| 1777663203 | 12.22° C | 59% | 1010.8 hPa | 0 mm | - | - | - |
| 1777661402 | 12.22° C | 58% | 1011.3 hPa | 0 mm | - | - | - |
| 1777660803 | 12.78° C | 58% | 1011.2 hPa | 0 mm | - | - | - |
| 1777657802 | 14.44° C | 51% | 1011.6 hPa | 0 mm | - | - | - |
| 1777654803 | 15° C | 48% | 1011.8 hPa | 0 mm | - | - | - |
| 1777654203 | 15.56° C | 48% | 1011.9 hPa | 0 mm | - | - | - |
| 1777650002 | 16.11° C | 50% | 1012.6 hPa | 0 mm | - | - | - |
| 1777647603 | 16.67° C | 49% | 1012.5 hPa | 0 mm | - | - | - |
* Rain latest hour (hover to see other rain measurements)
** Current wind speed in m/s (hover to see current wind gust speed)